Terminal Aerodrome Forecast
Issued by NWS

Home | Current Version | Previous Version | Text Only | Print | Product List | Glossary On
Versions: 1 2 3 4 5 6 7 8 9 10 11 12 13 14 15
584
FTUS46 KSGX 131739
TAFCRQ
TAF
KCRQ 131739Z 1318/1418 26007KT P6SM FEW002 SCT200
     FM140100 VRB04KT P6SM VCFG SCT002
     FM140400 VRB04KT 1SM BR VCFG BKN002
     FM140600 VRB04KT 1/4SM FG VV001
     FM141600 VRB04KT 3SM BR SCT002
     FM141700 VRB04KT P6SM SKC=

USA.gov is the U.S. government's official web portal to all federal, state and local government web resources and services.